Richmond, Virginia
Current Conditions -  °F | °C
As of 5:54 PM on Wednesday 22 Oct 2014 (Local Time) from KRIC Reporting Station
Overcast Overcast  
Wind Chill: 55°   Ceiling: 7500
Heat Index: 55°   Visibility: 10mi
Dew Point: 48°   Wind: 17mph
Humidity: 77%   Direction: 330°NNW
Pressure: 29.93"   Gusts: 25mph
Location:  37.54°N, 77.43°W
Report Text: KRIC 222154Z 33015G22KT 10SM SCT021 SCT055 BKN075 OVC300 13/09 A2993 RMK AO2 PK WND 33026/2118 RAB01E53 SLP139 P0001 T01280089
Loading
Personal Weather Stations






























Interactive Weather Map
Tropical Storm Tracking
New forecast layout! Learn more

10-Day Weather Forecast

Advertisements
Track Severe Weather on mobile